createdAt,value
2022-09-28T00:02:21.168Z,97785.13
2022-09-28T00:04:47.719Z,97781.84
2022-09-28T00:07:14.305Z,97778.22
2022-09-28T00:09:40.824Z,97780.84
2022-09-28T00:12:07.340Z,97778.34
2022-09-28T00:14:34.102Z,97768.66
2022-09-28T00:17:00.607Z,97767.94
2022-09-28T00:19:27.157Z,97774.06
2022-09-28T00:21:53.649Z,97768.78
2022-09-28T00:24:24.042Z,97767.13
2022-09-28T00:26:55.706Z,97769.91
2022-09-28T00:29:28.949Z,97771.03
2022-09-28T00:32:11.727Z,97765.78
2022-09-28T00:34:42.481Z,97763.13
2022-09-28T00:37:09.999Z,97766.56
2022-09-28T00:39:38.365Z,97761.44
2022-09-28T00:42:14.691Z,97757.16
2022-09-28T00:44:52.204Z,97758.97
2022-09-28T00:47:26.608Z,97755.38
2022-09-28T00:50:17.557Z,97757.16
2022-09-28T00:53:06.795Z,97750.22
2022-09-28T00:55:55.373Z,97747.75
2022-09-28T00:58:27.643Z,97745.63
2022-09-28T01:00:59.424Z,97744.69
2022-09-28T01:03:27.790Z,97740.22
2022-09-28T01:05:57.757Z,97741.06
2022-09-28T01:08:27.741Z,97735.78
2022-09-28T01:10:54.266Z,97734.81
2022-09-28T01:13:23.556Z,97734.94
2022-09-28T01:16:19.166Z,97730.13
2022-09-28T01:18:55.004Z,97728.03
2022-09-28T01:21:24.035Z,97737.06
2022-09-28T01:23:53.518Z,97733.88
2022-09-28T01:26:56.604Z,97727.53
2022-09-28T01:29:23.047Z,97726.41
2022-09-28T01:31:56.860Z,97728.50
2022-09-28T01:34:31.450Z,97724.38
2022-09-28T01:37:04.123Z,97724.50
2022-09-28T01:39:38.780Z,97726.28
2022-09-28T01:42:10.962Z,97731.44
2022-09-28T01:44:43.431Z,97726.16
2022-09-28T01:47:14.309Z,97724.38
2022-09-28T01:49:51.499Z,97722.81
2022-09-28T01:52:47.934Z,97720.63
2022-09-28T01:55:25.439Z,97717.88
2022-09-28T01:57:57.330Z,97720.63
2022-09-28T02:00:25.015Z,97722.56
2022-09-28T02:03:05.742Z,97724.81
2022-09-28T02:05:47.560Z,97715.41
2022-09-28T02:08:25.873Z,97712.09
2022-09-28T02:11:00.453Z,97714.88
2022-09-28T02:13:35.538Z,97710.84
2022-09-28T02:16:10.343Z,97710.16
2022-09-28T02:18:37.176Z,97712.78
2022-09-28T02:21:15.119Z,97716.84
2022-09-28T02:23:52.309Z,97710.75
2022-09-28T02:26:23.255Z,97712.53
2022-09-28T02:28:49.890Z,97716.84
2022-09-28T02:31:16.461Z,97698.41
2022-09-28T02:33:44.792Z,97716.69
2022-09-28T02:36:11.610Z,97714.88
2022-09-28T02:38:38.379Z,97717.38
2022-09-28T02:41:12.272Z,97707.97
2022-09-28T02:43:49.105Z,97712.78
2022-09-28T02:46:58.090Z,97720.16
2022-09-28T02:50:02.962Z,97713.25
2022-09-28T02:52:47.421Z,97712.13
2022-09-28T02:55:31.038Z,97712.13
2022-09-28T02:58:22.264Z,97712.41
2022-09-28T03:01:19.292Z,97711.59
2022-09-28T03:04:01.287Z,97721.28
2022-09-28T03:06:48.434Z,97720.28
2022-09-28T03:09:25.690Z,97713.91
2022-09-28T03:11:57.398Z,97721.53
2022-09-28T03:14:23.952Z,97723.03
2022-09-28T03:16:50.584Z,97722.06
2022-09-28T03:19:21.412Z,97717.63
2022-09-28T03:21:47.960Z,97718.47
2022-09-28T03:24:14.425Z,97723.59
2022-09-28T03:26:41.513Z,97722.78
2022-09-28T03:29:08.029Z,97721.94
2022-09-28T03:31:35.331Z,97713.22
2022-09-28T03:34:02.086Z,97715.84
2022-09-28T03:36:28.546Z,97720.28
2022-09-28T03:38:56.218Z,97717.63
2022-09-28T03:41:24.524Z,97719.44
2022-09-28T03:43:51.048Z,97717.50
2022-09-28T03:46:17.678Z,97720.13
2022-09-28T03:48:44.276Z,97716.66
2022-09-28T03:51:12.221Z,97717.50
2022-09-28T03:53:39.128Z,97715.84
2022-09-28T03:56:08.206Z,97716.78
2022-09-28T03:58:35.095Z,97716.00
2022-09-28T04:01:07.296Z,97714.31
2022-09-28T04:03:34.302Z,97713.34
2022-09-28T04:06:01.238Z,97718.63
2022-09-28T04:08:27.916Z,97708.22
2022-09-28T04:10:58.902Z,97713.63
2022-09-28T04:13:27.472Z,97707.38
2022-09-28T04:15:56.115Z,97706.56
2022-09-28T04:18:23.079Z,97707.38
2022-09-28T04:20:59.321Z,97706.72
2022-09-28T04:23:27.949Z,97710.72
2022-09-28T04:25:54.724Z,97714.03
2022-09-28T04:28:39.809Z,97706.13
2022-09-28T04:31:12.057Z,97717.63
2022-09-28T04:33:38.715Z,97723.44
2022-09-28T04:36:06.032Z,97725.41
2022-09-28T04:38:51.692Z,97724.69
2022-09-28T04:41:19.867Z,97720.41
2022-09-28T04:43:50.315Z,97714.47
2022-09-28T04:46:17.288Z,97724.03
2022-09-28T04:48:43.897Z,97725.00
2022-09-28T04:51:10.474Z,97725.00
2022-09-28T04:53:37.130Z,97722.38
2022-09-28T04:56:06.402Z,97728.47
2022-09-28T04:58:35.276Z,97724.16
2022-09-28T05:01:05.249Z,97722.38
2022-09-28T05:03:31.825Z,97730.09
2022-09-28T05:05:58.898Z,97727.47
2022-09-28T05:08:26.331Z,97728.47
2022-09-28T05:11:00.919Z,97726.28
2022-09-28T05:13:30.239Z,97728.91
2022-09-28T05:16:01.780Z,97719.31
2022-09-28T05:18:31.093Z,97728.19
2022-09-28T05:20:57.645Z,97731.81
2022-09-28T05:23:24.229Z,97728.66
2022-09-28T05:25:51.115Z,97735.72
2022-09-28T05:28:26.292Z,97736.97
2022-09-28T05:30:52.845Z,97724.63
2022-09-28T05:33:19.458Z,97728.94
2022-09-28T05:35:49.777Z,97719.38
2022-09-28T05:38:18.982Z,97719.38
2022-09-28T05:40:45.645Z,97725.03
2022-09-28T05:43:12.247Z,97726.00
2022-09-28T05:45:38.721Z,97730.44
2022-09-28T05:48:05.417Z,97726.16
2022-09-28T05:50:31.940Z,97725.31
2022-09-28T05:53:07.732Z,97734.19
2022-09-28T05:55:35.492Z,97735.97
2022-09-28T05:58:05.075Z,97729.06
2022-09-28T06:00:33.139Z,97734.31
2022-09-28T06:03:08.661Z,97730.84
2022-09-28T06:05:36.856Z,97737.81
2022-09-28T06:08:07.194Z,97734.19
2022-09-28T06:10:34.638Z,97738.47
2022-09-28T06:13:01.812Z,97735.84
2022-09-28T06:15:30.770Z,97742.75
2022-09-28T06:18:02.094Z,97740.00
2022-09-28T06:20:31.538Z,97745.25
2022-09-28T06:22:58.187Z,97733.75
2022-09-28T06:25:25.932Z,97745.25
2022-09-28T06:28:00.534Z,97749.16
2022-09-28T06:30:28.926Z,97749.16
2022-09-28T06:32:57.161Z,97744.88
2022-09-28T06:35:26.166Z,97743.22
2022-09-28T06:37:53.836Z,97748.47
2022-09-28T06:40:21.336Z,97753.03
2022-09-28T06:43:10.457Z,97762.06
2022-09-28T06:45:38.669Z,97766.91
2022-09-28T06:48:05.871Z,97768.56
2022-09-28T06:50:37.451Z,97770.22
2022-09-28T06:53:09.587Z,97771.06
2022-09-28T06:55:39.171Z,97770.22
2022-09-28T06:58:09.657Z,97773.69
2022-09-28T07:00:37.965Z,97784.22
2022-09-28T07:03:11.774Z,97773.69
2022-09-28T07:05:42.029Z,97774.38
2022-09-28T07:08:08.607Z,97778.53
2022-09-28T07:10:35.304Z,97787.13
2022-09-28T07:13:04.846Z,97782.53
2022-09-28T07:15:32.430Z,97793.78
2022-09-28T07:18:03.078Z,97797.94
2022-09-28T07:20:32.007Z,97806.69
2022-09-28T07:23:10.778Z,97797.78
2022-09-28T07:25:45.525Z,97806.38
2022-09-28T07:28:12.381Z,97807.22
2022-09-28T07:30:39.105Z,97808.72
2022-09-28T07:33:08.122Z,97808.72
2022-09-28T07:35:34.636Z,97808.59
2022-09-28T07:38:03.620Z,97815.38
2022-09-28T07:40:49.667Z,97826.59
2022-09-28T07:43:20.646Z,97818.56
2022-09-28T07:45:48.815Z,97821.91
2022-09-28T07:48:16.757Z,97824.41
2022-09-28T07:50:51.843Z,97835.75
2022-09-28T07:53:20.265Z,97840.75
2022-09-28T07:55:54.219Z,97840.88
2022-09-28T07:58:21.131Z,97847.66
2022-09-28T08:00:49.147Z,97844.22
2022-09-28T08:03:17.263Z,97845.88
2022-09-28T08:05:43.852Z,97849.31
2022-09-28T08:08:10.485Z,97853.66
2022-09-28T08:10:37.756Z,97849.88
2022-09-28T08:13:06.465Z,97847.78
2022-09-28T08:15:37.087Z,97853.59
2022-09-28T08:18:07.175Z,97854.31
2022-09-28T08:20:53.253Z,97854.56
2022-09-28T08:23:20.508Z,97855.09
2022-09-28T08:25:52.595Z,97854.69
2022-09-28T08:28:19.640Z,97861.06
2022-09-28T08:30:47.498Z,97855.06
2022-09-28T08:33:15.978Z,97859.47
2022-09-28T08:35:42.519Z,97859.44
2022-09-28T08:38:09.647Z,97863.69
2022-09-28T08:41:15.347Z,97865.59
2022-09-28T08:44:00.646Z,97868.56
2022-09-28T08:46:34.266Z,97868.22
2022-09-28T08:49:25.648Z,97874.94
2022-09-28T08:52:03.927Z,97874.03
2022-09-28T08:55:11.511Z,97870.66
2022-09-28T08:57:45.240Z,97881.69
2022-09-28T09:00:29.684Z,97879.41
2022-09-28T09:02:56.511Z,97878.34
2022-09-28T09:05:39.478Z,97884.16
2022-09-28T09:08:24.273Z,97885.22
2022-09-28T09:10:58.035Z,97886.16
2022-09-28T09:13:46.519Z,97890.81
2022-09-28T09:16:34.927Z,97892.25
2022-09-28T09:19:18.350Z,97891.53
2022-09-28T09:22:27.369Z,97900.50
2022-09-28T09:25:22.097Z,97904.34
2022-09-28T09:28:27.604Z,97906.31
2022-09-28T09:31:02.925Z,97913.03
2022-09-28T09:33:35.157Z,97912.47
2022-09-28T09:36:18.755Z,97915.81
2022-09-28T09:38:47.903Z,97917.41
2022-09-28T09:41:23.568Z,97923.22
2022-09-28T09:44:21.786Z,97922.75
2022-09-28T09:47:11.389Z,97919.75
2022-09-28T09:49:49.779Z,97920.41
2022-09-28T09:52:24.281Z,97914.97
2022-09-28T09:55:15.146Z,97918.69
2022-09-28T09:57:51.195Z,97918.19
2022-09-28T10:00:18.658Z,97923.06
2022-09-28T10:02:47.743Z,97931.75
2022-09-28T10:05:18.006Z,97921.25
2022-09-28T10:08:11.718Z,97929.03
2022-09-28T10:11:02.637Z,97931.56
2022-09-28T10:13:29.300Z,97930.63
2022-09-28T10:15:56.413Z,97932.66
2022-09-28T10:18:23.330Z,97929.06
2022-09-28T10:20:49.870Z,97933.28
2022-09-28T10:23:33.915Z,97931.19
2022-09-28T10:26:05.951Z,97934.41
2022-09-28T10:28:54.322Z,97933.38
2022-09-28T10:31:38.070Z,97934.09
2022-09-28T10:34:06.155Z,97936.13
2022-09-28T10:36:42.449Z,97934.97
2022-09-28T10:39:26.300Z,97949.19
2022-09-28T10:41:53.957Z,97949.81
2022-09-28T10:44:22.928Z,97944.84
2022-09-28T10:46:59.211Z,97946.41
2022-09-28T10:49:27.229Z,97942.88
2022-09-28T10:51:56.187Z,97944.00
2022-09-28T10:54:28.383Z,97944.13
2022-09-28T10:56:56.872Z,97941.63
2022-09-28T10:59:34.035Z,97947.41
2022-09-28T11:02:12.790Z,97949.94
2022-09-28T11:04:43.216Z,97953.22
2022-09-28T11:07:24.051Z,97956.81
2022-09-28T11:09:52.540Z,97953.41
2022-09-28T11:12:24.496Z,97953.75
2022-09-28T11:14:59.717Z,97951.97
2022-09-28T11:17:42.026Z,97944.00
2022-09-28T11:20:27.510Z,97955.41
2022-09-28T11:22:56.099Z,97946.69
2022-09-28T11:25:30.295Z,97945.44
2022-09-28T11:27:59.930Z,97952.06
2022-09-28T11:30:32.944Z,97940.16
2022-09-28T11:33:12.348Z,97943.72
2022-09-28T11:36:17.218Z,97936.72
2022-09-28T11:39:09.474Z,97942.44
2022-09-28T11:41:53.579Z,97941.97
2022-09-28T11:44:44.627Z,97945.88
2022-09-28T11:47:29.550Z,97947.22
2022-09-28T11:50:24.009Z,97952.16
2022-09-28T11:52:57.426Z,97946.44
2022-09-28T11:55:36.354Z,97945.66
2022-09-28T11:58:18.352Z,97943.19
2022-09-28T12:00:54.498Z,97943.75
2022-09-28T12:03:36.130Z,97943.22
2022-09-28T12:06:08.885Z,97949.56
2022-09-28T12:08:40.983Z,97945.81
2022-09-28T12:11:23.236Z,97945.72
2022-09-28T12:13:52.907Z,97945.78
2022-09-28T12:17:00.913Z,97958.06
2022-09-28T12:19:27.784Z,97948.69
2022-09-28T12:21:59.581Z,97954.03
2022-09-28T12:24:48.471Z,97945.22
2022-09-28T12:27:25.062Z,97944.53
2022-09-28T12:30:15.358Z,97944.84
2022-09-28T12:32:48.783Z,97943.81
2022-09-28T12:35:26.098Z,97943.19
2022-09-28T12:38:08.931Z,97938.44
2022-09-28T12:40:35.443Z,97936.69
2022-09-28T12:43:12.784Z,97940.91
2022-09-28T12:46:16.663Z,97929.78
2022-09-28T12:51:52.344Z,97931.81
2022-09-28T12:54:54.311Z,97928.16
2022-09-28T12:57:41.814Z,97933.00
2022-09-28T13:00:13.969Z,97930.81
2022-09-28T13:02:43.176Z,97931.75
2022-09-28T13:05:46.395Z,97929.19
2022-09-28T13:08:18.744Z,97936.53
2022-09-28T13:10:56.299Z,97935.72
2022-09-28T13:13:49.109Z,97933.47
2022-09-28T13:16:21.993Z,97935.97
2022-09-28T13:19:00.604Z,97936.97
2022-09-28T13:21:39.480Z,97935.91
2022-09-28T13:24:31.106Z,97940.00
2022-09-28T13:27:04.519Z,97936.84
2022-09-28T13:29:32.346Z,97940.94
2022-09-28T13:32:01.218Z,97942.41
2022-09-28T13:34:29.770Z,97946.13
2022-09-28T13:37:16.926Z,97944.41
2022-09-28T13:39:57.445Z,97940.97
2022-09-28T13:42:40.776Z,97937.97
2022-09-28T13:45:22.537Z,97938.03
2022-09-28T13:48:05.337Z,97945.28
2022-09-28T13:50:56.695Z,97951.53
2022-09-28T13:53:35.357Z,97946.75
2022-09-28T13:56:35.334Z,97943.28
2022-09-28T13:59:17.064Z,97938.75
2022-09-28T14:02:00.704Z,97942.03
2022-09-28T14:04:54.856Z,97942.53
2022-09-28T14:10:21.160Z,97943.53
2022-09-28T14:12:53.028Z,97942.09
2022-09-28T14:15:28.597Z,97947.19
2022-09-28T14:18:16.360Z,97942.91
2022-09-28T14:21:03.821Z,97936.47
2022-09-28T14:23:44.432Z,97941.41
2022-09-28T14:26:49.937Z,97941.47
2022-09-28T14:29:28.472Z,97947.69
2022-09-28T14:31:58.296Z,97946.75
2022-09-28T14:34:41.596Z,97955.25
2022-09-28T14:37:45.007Z,97944.78
2022-09-28T14:40:50.107Z,97947.63
2022-09-28T14:43:35.678Z,97947.09
2022-09-28T14:46:11.463Z,97939.66
2022-09-28T14:48:50.297Z,97937.88
2022-09-28T14:51:26.579Z,97939.59
2022-09-28T14:54:05.529Z,97943.19
2022-09-28T14:56:40.159Z,97942.66
2022-09-28T14:59:22.762Z,97941.59
2022-09-28T15:01:57.817Z,97943.47
2022-09-28T15:04:30.880Z,97950.00
2022-09-28T15:07:00.344Z,97941.31
2022-09-28T15:09:28.911Z,97951.91
2022-09-28T15:12:16.220Z,97947.53
2022-09-28T15:15:04.283Z,97951.59
2022-09-28T15:17:40.214Z,97950.72
2022-09-28T15:20:17.288Z,97954.13
2022-09-28T15:22:48.797Z,97958.94
2022-09-28T15:25:21.264Z,97963.19
2022-09-28T15:27:56.349Z,97965.00
2022-09-28T15:30:40.911Z,97959.53
2022-09-28T15:33:45.512Z,97963.16
2022-09-28T15:36:26.439Z,97960.00
2022-09-28T15:39:20.910Z,97968.63
2022-09-28T15:41:50.237Z,97968.88
2022-09-28T15:44:30.256Z,97963.94
2022-09-28T15:47:14.079Z,97970.94
2022-09-28T15:49:58.675Z,97967.16
2022-09-28T15:52:25.189Z,97964.88
2022-09-28T15:54:52.194Z,97968.34
2022-09-28T15:57:32.908Z,97978.53
2022-09-28T16:00:00.886Z,97977.13
2022-09-28T16:02:27.902Z,97977.94
2022-09-28T16:04:58.825Z,97984.00
2022-09-28T16:07:38.210Z,97978.56
2022-09-28T16:10:13.786Z,97986.66
2022-09-28T16:12:40.196Z,97982.84
2022-09-28T16:15:15.817Z,97989.47
2022-09-28T16:17:42.905Z,97982.97
2022-09-28T16:20:24.527Z,97993.09
2022-09-28T16:22:51.134Z,97986.56
2022-09-28T16:25:23.066Z,97989.69
2022-09-28T16:27:51.035Z,97996.94
2022-09-28T16:30:25.014Z,97994.84
2022-09-28T16:33:03.215Z,97996.28
2022-09-28T16:35:50.575Z,98002.53
2022-09-28T16:38:18.905Z,98002.34
2022-09-28T16:40:49.700Z,98002.53
2022-09-28T16:43:28.617Z,98013.34
2022-09-28T16:46:23.252Z,98013.50
2022-09-28T16:48:50.787Z,98015.09
2022-09-28T16:51:22.668Z,98011.38
2022-09-28T16:54:08.335Z,98022.22
2022-09-28T16:56:36.733Z,98020.97
2022-09-28T16:59:04.501Z,98017.06
2022-09-28T17:01:31.454Z,98018.50
2022-09-28T17:03:58.015Z,98025.06
2022-09-28T17:06:27.708Z,98020.13
2022-09-28T17:08:56.700Z,98024.66
2022-09-28T17:11:24.857Z,98026.38
2022-09-28T17:14:00.143Z,98034.03
2022-09-28T17:16:59.917Z,98035.03
2022-09-28T17:19:28.645Z,98035.88
2022-09-28T17:21:55.153Z,98038.72
2022-09-28T17:24:21.944Z,98043.72
2022-09-28T17:26:50.879Z,98040.56
2022-09-28T17:29:18.638Z,98046.06
2022-09-28T17:31:46.790Z,98043.56
2022-09-28T17:34:17.421Z,98051.69
2022-09-28T17:36:45.446Z,98061.53
2022-09-28T17:39:14.017Z,98059.19
2022-09-28T17:41:41.140Z,98057.72
2022-09-28T17:44:08.024Z,98054.75
2022-09-28T17:46:37.284Z,98058.72
2022-09-28T17:49:06.177Z,98057.41
2022-09-28T17:51:37.524Z,98055.25
2022-09-28T17:54:06.057Z,98059.91
2022-09-28T17:56:33.162Z,98061.25
2022-09-28T17:59:05.604Z,98068.22
2022-09-28T18:01:36.049Z,98068.38
2022-09-28T18:04:08.174Z,98068.06
2022-09-28T18:06:37.367Z,98069.22
2022-09-28T18:09:05.298Z,98066.91
2022-09-28T18:11:33.852Z,98069.88
2022-09-28T18:14:00.668Z,98065.41
2022-09-28T18:16:28.848Z,98061.25
2022-09-28T18:18:55.697Z,98068.53
2022-09-28T18:21:22.261Z,98072.38
2022-09-28T18:23:48.878Z,98073.53
2022-09-28T18:26:16.873Z,98074.69
2022-09-28T18:28:43.441Z,98074.69
2022-09-28T18:31:12.513Z,98073.03
2022-09-28T18:33:39.614Z,98075.53
2022-09-28T18:36:07.470Z,98075.53
2022-09-28T18:38:38.167Z,98065.91
2022-09-28T18:41:08.539Z,98075.53
2022-09-28T18:43:36.470Z,98083.34
2022-09-28T18:46:11.143Z,98077.50
2022-09-28T18:48:40.549Z,98075.84
2022-09-28T18:51:12.484Z,98075.53
2022-09-28T18:53:40.151Z,98087.16
2022-09-28T18:56:09.454Z,98076.00
2022-09-28T18:58:38.006Z,98086.13
2022-09-28T19:01:29.565Z,98085.13
2022-09-28T19:04:00.324Z,98087.41
2022-09-28T19:06:27.301Z,98092.38
2022-09-28T19:08:55.751Z,98088.22
2022-09-28T19:11:23.007Z,98090.69
2022-09-28T19:13:49.557Z,98094.97
2022-09-28T19:16:20.075Z,98093.78
2022-09-28T19:18:46.991Z,98093.28
2022-09-28T19:21:15.233Z,98091.94
2022-09-28T19:23:46.956Z,98092.59
2022-09-28T19:26:18.405Z,98094.88
2022-09-28T19:28:44.972Z,98088.22
2022-09-28T19:31:12.127Z,98108.13
2022-09-28T19:33:40.135Z,98100.63
2022-09-28T19:36:09.381Z,98103.75
2022-09-28T19:38:37.596Z,98097.09
2022-09-28T19:41:12.644Z,98099.03
2022-09-28T19:43:42.256Z,98102.00
2022-09-28T19:46:08.879Z,98100.97
2022-09-28T19:48:35.556Z,98107.22
2022-09-28T19:51:04.905Z,98110.94
2022-09-28T19:53:38.332Z,98110.19
2022-09-28T19:56:05.726Z,98108.47
2022-09-28T19:58:35.792Z,98119.28
2022-09-28T20:01:06.926Z,98117.69
2022-09-28T20:03:34.367Z,98119.31
2022-09-28T20:06:01.870Z,98128.16
2022-09-28T20:08:32.218Z,98123.75
2022-09-28T20:10:59.897Z,98133.28
2022-09-28T20:13:31.810Z,98130.69
2022-09-28T20:16:10.371Z,98132.41
2022-09-28T20:18:38.938Z,98131.06
2022-09-28T20:21:07.948Z,98127.34
2022-09-28T20:23:37.385Z,98131.25
2022-09-28T20:26:05.465Z,98133.53
2022-09-28T20:28:32.909Z,98145.38
2022-09-28T20:31:06.599Z,98141.59
2022-09-28T20:33:34.427Z,98145.50
2022-09-28T20:36:09.469Z,98146.91
2022-09-28T20:38:40.480Z,98142.47
2022-09-28T20:41:08.564Z,98143.59
2022-09-28T20:43:35.301Z,98146.53
2022-09-28T20:46:03.794Z,98146.00
2022-09-28T20:48:31.148Z,98145.44
2022-09-28T20:51:05.271Z,98156.47
2022-09-28T20:53:32.884Z,98147.00
2022-09-28T20:56:14.082Z,98149.53
2022-09-28T20:58:41.002Z,98151.34
2022-09-28T21:01:15.649Z,98148.16
2022-09-28T21:03:47.167Z,98150.09
2022-09-28T21:06:14.896Z,98155.53
2022-09-28T21:08:42.728Z,98149.56
2022-09-28T21:11:09.277Z,98155.97
2022-09-28T21:13:35.839Z,98160.72
2022-09-28T21:16:04.063Z,98159.31
2022-09-28T21:18:30.796Z,98155.97
2022-09-28T21:20:57.306Z,98159.72
2022-09-28T21:23:25.053Z,98157.22
2022-09-28T21:26:01.895Z,98165.72
2022-09-28T21:28:28.482Z,98166.53
2022-09-28T21:30:55.175Z,98173.94
2022-09-28T21:33:21.777Z,98168.09
2022-09-28T21:35:48.302Z,98175.31
2022-09-28T21:38:14.817Z,98177.13
2022-09-28T21:40:42.014Z,98177.94
2022-09-28T21:43:08.627Z,98177.13
2022-09-28T21:45:35.240Z,98182.41
2022-09-28T21:48:01.764Z,98185.06
2022-09-28T21:50:28.323Z,98178.94
2022-09-28T21:52:55.812Z,98182.69
2022-09-28T21:55:24.070Z,98189.22
2022-09-28T21:57:51.182Z,98185.19
2022-09-28T22:00:20.804Z,98186.44
2022-09-28T22:02:47.414Z,98192.84
2022-09-28T22:05:14.017Z,98191.56
2022-09-28T22:07:42.405Z,98191.28
2022-09-28T22:10:12.810Z,98192.00
2022-09-28T22:12:39.403Z,98191.56
2022-09-28T22:15:06.557Z,98201.53
2022-09-28T22:17:33.082Z,98205.44
2022-09-28T22:19:59.718Z,98201.56
2022-09-28T22:22:29.035Z,98201.91
2022-09-28T22:24:56.239Z,98208.44
2022-09-28T22:27:24.088Z,98209.66
2022-09-28T22:29:51.158Z,98206.34
2022-09-28T22:32:18.866Z,98207.44
2022-09-28T22:34:45.478Z,98210.22
2022-09-28T22:37:12.037Z,98208.53
2022-09-28T22:39:41.054Z,98205.06
2022-09-28T22:42:08.281Z,98222.56
2022-09-28T22:44:35.850Z,98214.50
2022-09-28T22:47:03.545Z,98213.41
2022-09-28T22:49:30.199Z,98219.41
2022-09-28T22:51:56.725Z,98220.63
2022-09-28T22:54:23.351Z,98215.09
2022-09-28T22:56:49.862Z,98220.00
2022-09-28T22:59:16.415Z,98219.59
2022-09-28T23:01:43.105Z,98213.22
2022-09-28T23:04:09.749Z,98220.72
2022-09-28T23:06:36.385Z,98220.59
2022-09-28T23:09:03.518Z,98218.63
2022-09-28T23:11:30.126Z,98222.00
2022-09-28T23:13:58.711Z,98223.66
2022-09-28T23:16:26.861Z,98221.84
2022-09-28T23:18:55.091Z,98222.53
2022-09-28T23:21:24.285Z,98228.66
2022-09-28T23:23:53.622Z,98220.75
2022-09-28T23:26:23.891Z,98218.09
2022-09-28T23:28:51.133Z,98220.88
2022-09-28T23:31:20.722Z,98220.28
2022-09-28T23:33:47.725Z,98221.53
2022-09-28T23:36:15.044Z,98227.25
2022-09-28T23:38:41.992Z,98227.63
2022-09-28T23:41:08.994Z,98228.19
2022-09-28T23:43:36.325Z,98222.47
2022-09-28T23:46:04.540Z,98221.06
2022-09-28T23:48:31.307Z,98229.22
2022-09-28T23:50:57.972Z,98232.13
2022-09-28T23:53:24.564Z,98233.22
2022-09-28T23:55:51.205Z,98227.41
2022-09-28T23:58:17.760Z,98231.16
